KCRE/CRE METAR and TAF weather

Enter ICAO airport designator
Station Type Date Time Source
KCRE METAR 2019/12/12 11:53 UTC NOAA

KCRE 121153Z 02010KT 10SM CLR 03/M04 A3057 RMK AO1 SLP351 T00331039 10039 20011 51009


Station Type Date Time Source
KCRE Decoded METAR 2019/12/12 11:53 UTC NOAA

N. MYRTLE BCH.GRAND STRAND, SC, United States (KCRE) 33-49N 078-43W 10M
Dec 12, 2019 - 06:53 AM EST / 2019.12.12 1153 UTC
Wind: from the NNE (020 degrees) at 12 MPH (10 KT):0
Visibility: 10 mile(s):0
Sky conditions: clear
Temperature: 37.9 F (3.3 C)
Dew Point: 25.0 F (-3.9 C)
Relative Humidity: 59%
Pressure (altimeter): 30.57 in. Hg (1035 hPa)
Pressure tendency: 0.03 inches (0.9 hPa) higher than three hours ago
ob: KCRE 121153Z 02010KT 10SM CLR 03/M04 A3057 RMK AO1 SLP351 T00331039 10039 20011 51009
cycle: 12

Station Type Date Time Source
KCRE TAF 2019/12/12 12:22 UTC NOAA

TAF KCRE 121120Z 1212/1312 03011G17KT P6SM SKC
FM121800 04010G16KT P6SM SCT025
FM130500 04009KT P6SM BKN025
FM130900 04008KT P6SM BKN015

Example: see airport list